Time;durP1;ratioP1;P1;durP2;ratioP2;P2;SDS_P1;SDS_P2;PMS_P1;PMS_P2;Temp;Humidity;BMP_temperature;BMP_pressure;BME280_temperature;BME280_humidity;BME280_pressure;Samples;Min_cycle;Max_cycle;Signal;HPM_P1;HPM_P2
2021/08/02 00:00:03;;;;;;;17.23;12.65;;;15.50;93.60;;;;;;5010692;28;20448;-80
2021/08/02 00:02:51;;;;;;;18.85;13.73;;;15.60;94.00;;;;;;5009731;28;20396;-80
2021/08/02 00:05:17;;;;;;;8.07;6.80;;;15.50;95.80;;;;;;4999050;28;20032;-82
2021/08/02 00:07:43;;;;;;;11.18;8.48;;;15.50;93.80;;;;;;5011115;28;20037;-81
2021/08/02 00:10:13;;;;;;;11.20;9.15;;;15.40;93.80;;;;;;4997391;28;20529;-81
2021/08/02 00:12:50;;;;;;;7.97;6.72;;;15.50;93.70;;;;;;5026805;28;20037;-81
2021/08/02 00:15:17;;;;;;;9.75;8.00;;;15.60;93.40;;;;;;4990727;28;20399;-80
2021/08/02 00:17:43;;;;;;;16.10;11.82;;;15.60;93.80;;;;;;5010772;28;20505;-81
2021/08/02 00:20:16;;;;;;;15.18;10.80;;;15.50;93.90;;;;;;5000715;28;20041;-80
2021/08/02 00:22:42;;;;;;;14.18;10.45;;;15.40;94.20;;;;;;5005298;28;20584;-81
2021/08/02 00:25:08;;;;;;;15.70;9.30;;;15.40;94.90;;;;;;5002335;28;20057;-80
2021/08/02 00:27:34;;;;;;;11.80;8.40;;;15.40;94.70;;;;;;4994873;28;20076;-80
2021/08/02 00:30:00;;;;;;;11.68;6.95;;;15.40;95.60;;;;;;4983930;28;20034;-80
2021/08/02 00:32:25;;;;;;;10.15;6.53;;;15.40;95.70;;;;;;4993540;28;20029;-81
2021/08/02 00:34:51;;;;;;;9.30;6.35;;;15.40;95.30;;;;;;5009987;28;20050;-80
2021/08/02 00:37:34;;;;;;;9.60;6.18;;;15.40;94.80;;;;;;5012220;28;20347;-81
2021/08/02 00:40:20;;;;;;;10.63;5.57;;;15.30;94.60;;;;;;5011099;28;20568;-81
2021/08/02 00:43:03;;;;;;;8.80;5.65;;;15.30;96.80;;;;;;4997046;28;20039;-83
2021/08/02 00:45:33;;;;;;;10.93;4.80;;;15.30;95.20;;;;;;4980697;28;20496;-81
2021/08/02 00:48:04;;;;;;;8.80;4.72;;;15.30;95.10;;;;;;5011180;28;20397;-81
2021/08/02 00:50:32;;;;;;;5.90;3.75;;;15.20;95.70;;;;;;4994648;28;20037;-82
2021/08/02 00:53:03;;;;;;;4.88;3.70;;;15.20;94.50;;;;;;5010453;28;20132;-81
2021/08/02 00:55:35;;;;;;;6.00;3.58;;;15.20;95.00;;;;;;4996223;28;20037;-81
2021/08/02 00:58:06;;;;;;;6.22;3.88;;;15.20;94.60;;;;;;4996539;28;20120;-80
2021/08/02 01:00:32;;;;;;;6.43;3.60;;;15.10;95.70;;;;;;5010022;28;20048;-81
2021/08/02 01:02:58;;;;;;;8.55;3.97;;;15.00;95.50;;;;;;5000295;28;20026;-81
2021/08/02 01:05:24;;;;;;;3.88;3.20;;;15.00;94.30;;;;;;4995748;28;20053;-81
2021/08/02 01:08:01;;;;;;;6.00;3.08;;;14.90;94.60;;;;;;5000645;28;20022;-81
2021/08/02 01:10:27;;;;;;;6.85;3.42;;;14.90;94.90;;;;;;4995319;28;20049;-82
2021/08/02 01:12:54;;;;;;;7.82;3.05;;;14.80;95.50;;;;;;5001552;28;20034;-82
2021/08/02 01:15:20;;;;;;;8.77;3.42;;;14.70;94.20;;;;;;4993182;28;20528;-82
2021/08/02 01:17:46;;;;;;;11.77;3.72;;;14.60;96.00;;;;;;5001433;28;20061;-81
2021/08/02 01:20:12;;;;;;;4.93;3.38;;;14.30;94.90;;;;;;4994884;28;20295;-81
2021/08/02 01:22:38;;;;;;;5.15;3.33;;;14.40;94.70;;;;;;5008971;28;20035;-81
2021/08/02 01:25:39;;;;;;;7.20;3.40;;;14.40;94.10;;;;;;4996566;28;20052;-81
2021/08/02 01:28:14;;;;;;;4.60;3.10;;;14.50;94.80;;;;;;5023457;28;20616;-82
2021/08/02 01:30:45;;;;;;;2.45;2.25;;;14.40;94.00;;;;;;5023712;28;20120;-82
2021/08/02 01:33:11;;;;;;;4.97;3.00;;;14.40;94.30;;;;;;4993205;28;20498;-82
2021/08/02 01:35:36;;;;;;;11.32;3.65;;;14.40;94.00;;;;;;5023640;28;20029;-81
2021/08/02 01:38:02;;;;;;;9.70;3.60;;;14.50;94.60;;;;;;4995777;28;20033;-81
2021/08/02 01:40:28;;;;;;;6.78;3.55;;;14.40;94.70;;;;;;4995340;28;22008;-82
2021/08/02 01:42:53;;;;;;;3.35;2.42;;;14.40;95.70;;;;;;4995141;28;20464;-81
2021/08/02 01:45:19;;;;;;;6.80;3.05;;;14.40;94.00;;;;;;5008261;28;20076;-81
2021/08/02 01:47:49;;;;;;;10.80;3.42;;;14.40;94.60;;;;;;4993784;28;20033;-82
2021/08/02 01:50:32;;;;;;;8.45;3.90;;;14.30;94.10;;;;;;5009823;28;20109;-81
2021/08/02 01:52:59;;;;;;;4.60;3.25;;;14.20;97.00;;;;;;5003006;28;20037;-81
2021/08/02 01:55:25;;;;;;;5.80;3.10;;;14.20;95.20;;;;;;4997301;28;20132;-81
2021/08/02 01:58:03;;;;;;;5.10;2.50;;;14.10;95.40;;;;;;4998174;28;20568;-81
2021/08/02 02:00:30;;;;;;;4.68;2.33;;;14.20;94.40;;;;;;4992497;28;20041;-81
2021/08/02 02:03:02;;;;;;;5.65;3.03;;;14.20;94.40;;;;;;5001264;28;20022;-82
2021/08/02 02:05:33;;;;;;;3.75;3.10;;;14.20;95.10;;;;;;5024327;28;20033;-81
2021/08/02 02:08:18;;;;;;;4.63;3.13;;;14.20;94.70;;;;;;5008586;28;20057;-81
2021/08/02 02:10:49;;;;;;;8.18;3.53;;;14.10;94.50;;;;;;5017226;28;20038;-81
2021/08/02 02:13:24;;;;;;;9.02;3.55;;;14.00;95.00;;;;;;4993087;28;20532;-81
2021/08/02 02:15:52;;;;;;;4.45;2.80;;;14.00;96.50;;;;;;4992052;28;20248;-81
2021/08/02 02:18:19;;;;;;;5.30;3.22;;;14.00;94.60;;;;;;4993443;28;20033;-81
2021/08/02 02:20:45;;;;;;;3.90;3.40;;;13.90;94.90;;;;;;4993376;28;20025;-81
2021/08/02 02:23:12;;;;;;;7.10;4.13;;;13.90;94.70;;;;;;4988792;28;20073;-83
2021/08/02 02:25:38;;;;;;;3.10;2.80;;;14.00;96.60;;;;;;4996993;28;20021;-81
2021/08/02 02:28:04;;;;;;;3.72;2.53;;;14.00;94.90;;;;;;4993727;28;20105;-81
2021/08/02 02:30:30;;;;;;;11.57;4.07;;;14.00;95.20;;;;;;4992443;28;20045;-81
2021/08/02 02:32:55;;;;;;;6.18;3.25;;;14.00;95.20;;;;;;4998297;28;20025;-81
2021/08/02 02:35:22;;;;;;;4.57;3.00;;;14.00;95.00;;;;;;4999996;28;20059;-81
2021/08/02 02:37:48;;;;;;;5.97;4.03;;;14.00;94.60;;;;;;5009628;28;20026;-80
2021/08/02 02:40:14;;;;;;;4.72;3.22;;;13.90;95.30;;;;;;4991450;28;20362;-81
2021/08/02 02:42:39;;;;;;;8.70;4.53;;;13.80;96.70;;;;;;4995508;28;20032;-81
2021/08/02 02:45:05;;;;;;;15.55;4.78;;;13.80;97.10;;;;;;4990213;28;20436;-81
2021/08/02 02:47:31;;;;;;;6.45;3.72;;;13.80;97.70;;;;;;5017336;28;20033;-81
2021/08/02 02:49:57;;;;;;;7.85;4.65;;;13.80;96.60;;;;;;5009114;28;20029;-81
2021/08/02 02:52:23;;;;;;;8.23;3.67;;;13.90;97.90;;;;;;4996667;28;20477;-81
2021/08/02 02:54:49;;;;;;;7.30;3.88;;;13.80;95.40;;;;;;4996564;28;20397;-82
2021/08/02 02:57:15;;;;;;;7.15;3.67;;;13.80;95.50;;;;;;4995543;28;20463;-81
2021/08/02 02:59:40;;;;;;;4.20;2.70;;;13.90;95.20;;;;;;4998002;28;20105;-81
2021/08/02 03:02:06;;;;;;;5.32;2.20;;;13.90;95.00;;;;;;4993103;28;20033;-82
2021/08/02 03:04:33;;;;;;;4.65;2.30;;;13.90;95.30;;;;;;4996483;28;20061;-81
2021/08/02 03:06:59;;;;;;;3.25;2.20;;;13.90;95.00;;;;;;4997848;28;20435;-81
2021/08/02 03:09:25;;;;;;;4.47;2.25;;;13.90;95.10;;;;;;5011605;28;20034;-79
2021/08/02 03:11:51;;;;;;;8.85;3.13;;;14.00;95.10;;;;;;5008413;28;20041;-80
2021/08/02 03:14:16;;;;;;;3.40;2.72;;;14.10;95.90;;;;;;4996607;28;20083;-79
2021/08/02 03:16:42;;;;;;;3.50;2.88;;;14.10;95.30;;;;;;4994161;28;20029;-79
2021/08/02 03:19:07;;;;;;;3.58;2.65;;;14.10;95.30;;;;;;4992636;28;20037;-79
2021/08/02 03:21:33;;;;;;;3.60;3.20;;;14.10;95.50;;;;;;5021079;28;20037;-79
2021/08/02 03:24:05;;;;;;;4.18;1.80;;;14.10;95.30;;;;;;5011808;28;20026;-80
2021/08/02 03:26:34;;;;;;;7.65;3.50;;;14.20;94.90;;;;;;5026086;28;20539;-80
2021/08/02 03:29:15;;;;;;;7.05;2.45;;;14.30;95.30;;;;;;5004374;28;20034;-79
2021/08/02 03:31:53;;;;;;;4.55;3.00;;;14.30;95.70;;;;;;5006163;28;20053;-80
2021/08/02 03:34:23;;;;;;;3.88;2.85;;;14.20;95.10;;;;;;4976816;28;20033;-79
2021/08/02 03:36:49;;;;;;;5.50;2.70;;;14.00;95.00;;;;;;5008851;28;20489;-80
2021/08/02 03:39:15;;;;;;;5.53;3.22;;;14.10;95.50;;;;;;4992213;28;20042;-80
2021/08/02 03:41:42;;;;;;;10.07;3.72;;;14.10;95.80;;;;;;4997457;28;20473;-81
2021/08/02 03:44:11;;;;;;;4.07;3.25;;;14.10;96.00;;;;;;4981861;28;20425;-80
2021/08/02 03:46:37;;;;;;;5.32;3.25;;;14.10;95.30;;;;;;5007762;28;20119;-80
2021/08/02 03:49:03;;;;;;;7.97;4.25;;;14.10;95.60;;;;;;4992035;28;20046;-80
2021/08/02 03:51:35;;;;;;;14.30;4.55;;;14.00;95.30;;;;;;4994468;28;20033;-80
2021/08/02 03:54:01;;;;;;;6.78;4.47;;;13.90;97.00;;;;;;5005596;28;20026;-81
2021/08/02 03:56:26;;;;;;;8.48;4.82;;;13.80;97.00;;;;;;4990951;28;20468;-80
2021/08/02 03:58:52;;;;;;;9.50;4.45;;;13.90;98.00;;;;;;5009181;28;20037;-80
2021/08/02 04:01:17;;;;;;;13.43;6.03;;;13.90;95.90;;;;;;5002959;28;20091;-80
2021/08/02 04:03:43;;;;;;;5.53;3.28;;;13.90;96.00;;;;;;4999580;28;20029;-80
2021/08/02 04:06:10;;;;;;;6.10;2.75;;;13.90;95.40;;;;;;5011392;28;20036;-80
2021/08/02 04:08:35;;;;;;;6.50;3.45;;;14.00;95.50;;;;;;5009170;28;20102;-81
2021/08/02 04:11:01;;;;;;;7.90;3.83;;;14.00;95.40;;;;;;4991633;28;20068;-80
2021/08/02 04:13:26;;;;;;;7.72;4.00;;;14.10;95.60;;;;;;5003904;28;20092;-80
2021/08/02 04:15:52;;;;;;;10.00;3.70;;;14.10;95.40;;;;;;4997583;28;20033;-80
2021/08/02 04:18:17;;;;;;;3.08;2.35;;;14.00;95.10;;;;;;4997413;28;20054;-81
2021/08/02 04:20:43;;;;;;;6.45;2.92;;;14.10;95.50;;;;;;4990368;28;20069;-80
2021/08/02 04:23:10;;;;;;;4.95;2.47;;;14.20;95.70;;;;;;4993320;28;20057;-81
2021/08/02 04:25:36;;;;;;;7.28;4.07;;;14.10;95.30;;;;;;5005550;28;20026;-80
2021/08/02 04:28:01;;;;;;;7.78;3.50;;;14.20;95.80;;;;;;4991651;28;20076;-80
2021/08/02 04:30:27;;;;;;;3.65;2.47;;;14.20;95.50;;;;;;5007650;28;20036;-80
2021/08/02 04:32:52;;;;;;;6.18;2.90;;;14.20;95.70;;;;;;4993884;28;20035;-80
2021/08/02 04:35:18;;;;;;;5.93;2.67;;;14.20;95.50;;;;;;5008759;28;20079;-80
2021/08/02 04:37:43;;;;;;;5.72;2.75;;;14.20;95.80;;;;;;4999138;28;20080;-80
2021/08/02 04:40:10;;;;;;;4.35;2.13;;;14.20;95.40;;;;;;4990828;28;20048;-81
2021/08/02 04:42:36;;;;;;;10.25;4.25;;;14.10;95.30;;;;;;4984097;28;20489;-81
2021/08/02 04:45:03;;;;;;;6.60;3.10;;;14.10;95.60;;;;;;4986673;28;20041;-80
2021/08/02 04:47:28;;;;;;;11.90;4.15;;;14.10;95.30;;;;;;5023673;28;20049;-80
2021/08/02 04:49:54;;;;;;;9.48;4.60;;;14.10;96.80;;;;;;5007834;28;20481;-80
2021/08/02 04:52:19;;;;;;;10.95;5.53;;;14.20;95.60;;;;;;4997445;28;20386;-80
2021/08/02 04:54:45;;;;;;;10.45;4.72;;;14.00;95.90;;;;;;4995446;28;20142;-80
2021/08/02 04:57:11;;;;;;;8.15;4.97;;;14.00;95.90;;;;;;4995344;28;20044;-80
2021/08/02 04:59:36;;;;;;;5.93;3.15;;;14.10;96.50;;;;;;5000586;28;20032;-80
2021/08/02 05:02:02;;;;;;;4.63;3.78;;;14.10;96.00;;;;;;4999246;28;20029;-80
2021/08/02 05:04:27;;;;;;;4.70;3.45;;;14.10;95.70;;;;;;4997552;28;20501;-80
2021/08/02 05:06:53;;;;;;;9.38;4.47;;;14.20;95.70;;;;;;4999796;28;20064;-80
2021/08/02 05:09:18;;;;;;;3.85;2.95;;;14.20;96.30;;;;;;4994517;28;20040;-81
2021/08/02 05:11:44;;;;;;;6.88;4.18;;;14.20;95.50;;;;;;5001177;28;20025;-80
2021/08/02 05:14:10;;;;;;;10.98;3.60;;;14.20;95.50;;;;;;5011092;28;20045;-81
2021/08/02 05:16:36;;;;;;;6.55;4.70;;;14.20;95.80;;;;;;5004786;28;20049;-81
2021/08/02 05:19:02;;;;;;;15.10;6.10;;;14.20;95.80;;;;;;4996258;28;20025;-82
2021/08/02 05:21:28;;;;;;;13.50;5.82;;;14.30;96.90;;;;;;5027316;28;20026;-80
2021/08/02 05:23:53;;;;;;;7.32;5.13;;;14.30;96.00;;;;;;5000289;28;20087;-80
2021/08/02 05:26:19;;;;;;;5.30;2.97;;;14.30;96.30;;;;;;4998912;28;20500;-80
2021/08/02 05:28:44;;;;;;;6.75;3.35;;;14.30;95.70;;;;;;5006303;28;20040;-80
2021/08/02 05:31:10;;;;;;;6.20;3.60;;;14.30;96.00;;;;;;4991995;28;20094;-81
2021/08/02 05:33:35;;;;;;;5.70;4.10;;;14.40;95.50;;;;;;5000438;28;20477;-81
2021/08/02 05:36:04;;;;;;;5.10;3.70;;;14.40;96.00;;;;;;4993818;28;20454;-80
2021/08/02 05:38:30;;;;;;;11.18;5.45;;;14.50;95.50;;;;;;4995815;28;20037;-79
2021/08/02 05:40:56;;;;;;;15.00;6.45;;;14.50;95.90;;;;;;5024490;28;20042;-79
2021/08/02 05:43:23;;;;;;;7.57;3.92;;;14.60;95.80;;;;;;4985493;28;20034;-78
2021/08/02 05:45:50;;;;;;;4.80;3.88;;;14.60;96.10;;;;;;4991685;28;20049;-78
2021/08/02 05:48:16;;;;;;;9.48;5.00;;;14.60;95.90;;;;;;4994899;28;20088;-79
2021/08/02 05:50:41;;;;;;;9.20;3.85;;;14.60;96.20;;;;;;5028549;28;20037;-78
2021/08/02 05:53:07;;;;;;;9.13;3.15;;;14.70;95.50;;;;;;5008453;28;20511;-79
2021/08/02 05:55:32;;;;;;;17.70;7.25;;;14.70;96.10;;;;;;5026380;28;20076;-78
2021/08/02 05:57:58;;;;;;;25.63;7.70;;;14.70;95.80;;;;;;5006645;28;20033;-79
2021/08/02 06:00:25;;;;;;;8.88;4.43;;;14.70;95.50;;;;;;5014005;28;20500;-77
2021/08/02 06:02:51;;;;;;;6.25;3.72;;;14.80;96.10;;;;;;5011719;28;20117;-78
2021/08/02 06:05:16;;;;;;;11.32;4.82;;;14.90;95.40;;;;;;4998840;28;20542;-79
2021/08/02 06:07:43;;;;;;;11.90;6.88;;;14.90;95.90;;;;;;5009716;28;20040;-78
2021/08/02 06:10:11;;;;;;;4.32;3.15;;;15.00;95.00;;;;;;4997448;28;20026;-78
2021/08/02 06:12:37;;;;;;;14.88;5.82;;;15.20;95.00;;;;;;4990157;28;20072;-77
2021/08/02 06:15:03;;;;;;;7.70;5.03;;;15.30;95.70;;;;;;4992508;28;20049;-78
2021/08/02 06:17:29;;;;;;;4.82;3.35;;;15.40;95.30;;;;;;4992845;28;20121;-77
2021/08/02 06:19:54;;;;;;;6.55;4.07;;;15.50;95.70;;;;;;4995337;28;20563;-78
2021/08/02 06:22:20;;;;;;;10.77;4.55;;;15.50;95.70;;;;;;5011034;28;20039;-77
2021/08/02 06:24:45;;;;;;;11.30;5.38;;;15.60;95.40;;;;;;5007736;28;20029;-79
2021/08/02 06:27:11;;;;;;;12.80;5.32;;;15.60;95.20;;;;;;4996041;28;20037;-78
2021/08/02 06:29:36;;;;;;;7.68;4.38;;;15.60;95.10;;;;;;4995393;28;20544;-77
2021/08/02 06:32:02;;;;;;;7.05;4.63;;;15.70;95.30;;;;;;4991475;28;20036;-78
2021/08/02 06:34:28;;;;;;;7.90;4.13;;;15.80;94.90;;;;;;5008534;28;20038;-77
2021/08/02 06:36:54;;;;;;;8.52;4.28;;;16.00;95.80;;;;;;4999465;28;20026;-78
2021/08/02 06:39:20;;;;;;;7.55;3.45;;;16.10;95.80;;;;;;5007170;28;20485;-77
2021/08/02 06:41:45;;;;;;;6.15;2.97;;;16.30;95.70;;;;;;5003081;28;20065;-78
2021/08/02 06:44:11;;;;;;;10.05;3.80;;;16.40;95.80;;;;;;4992908;28;20036;-78
2021/08/02 06:46:36;;;;;;;8.95;3.17;;;16.50;95.90;;;;;;4991773;28;20036;-79
2021/08/02 06:49:02;;;;;;;6.78;2.90;;;16.50;95.80;;;;;;5008443;28;20045;-77
2021/08/02 06:51:27;;;;;;;12.70;2.63;;;16.60;96.00;;;;;;5005251;28;20037;-78
2021/08/02 06:53:53;;;;;;;7.18;2.85;;;16.60;95.80;;;;;;5000416;28;20034;-78
2021/08/02 06:56:19;;;;;;;7.35;2.55;;;16.70;96.10;;;;;;4995872;28;20052;-78
2021/08/02 06:58:44;;;;;;;5.65;2.70;;;16.80;96.40;;;;;;5002144;28;20489;-77
2021/08/02 07:01:10;;;;;;;7.82;3.17;;;16.80;96.40;;;;;;4996217;28;20532;-78
2021/08/02 07:03:35;;;;;;;10.02;3.00;;;17.00;96.30;;;;;;4997300;28;20121;-77
2021/08/02 07:06:01;;;;;;;9.00;3.10;;;17.10;96.90;;;;;;4988765;28;20095;-78
2021/08/02 07:08:26;;;;;;;7.28;2.80;;;17.10;97.00;;;;;;5008726;28;20029;-78
2021/08/02 07:10:52;;;;;;;5.90;2.45;;;17.30;96.60;;;;;;5008639;28;20802;-78
2021/08/02 07:13:17;;;;;;;7.80;3.20;;;17.40;96.70;;;;;;4993861;28;20041;-78
2021/08/02 07:15:43;;;;;;;9.35;3.22;;;17.60;96.70;;;;;;4994596;28;20025;-78
2021/08/02 07:18:09;;;;;;;5.85;3.08;;;17.80;97.10;;;;;;4992847;28;20041;-77
2021/08/02 07:20:34;;;;;;;6.97;3.03;;;17.90;96.20;;;;;;5023806;28;20044;-78
2021/08/02 07:23:00;;;;;;;6.78;2.67;;;17.90;96.30;;;;;;4997639;28;20025;-79
2021/08/02 07:25:26;;;;;;;8.52;3.60;;;17.90;95.80;;;;;;5011874;28;20040;-79
2021/08/02 07:27:51;;;;;;;7.15;3.17;;;17.90;96.00;;;;;;4998489;28;20029;-78
2021/08/02 07:30:17;;;;;;;5.63;2.45;;;18.00;96.00;;;;;;4992402;28;20448;-78
2021/08/02 07:32:42;;;;;;;5.65;2.40;;;17.90;95.60;;;;;;4993895;28;20400;-78
2021/08/02 07:35:08;;;;;;;9.10;2.40;;;18.00;95.20;;;;;;4991508;28;20026;-78
2021/08/02 07:37:33;;;;;;;3.95;2.63;;;18.20;96.00;;;;;;4993639;28;20041;-78
2021/08/02 07:39:59;;;;;;;4.68;2.53;;;18.30;96.10;;;;;;4994090;28;20467;-79
2021/08/02 07:42:26;;;;;;;4.88;2.75;;;18.40;96.00;;;;;;4993157;28;20088;-78
2021/08/02 07:44:51;;;;;;;9.38;2.70;;;18.50;96.00;;;;;;4992710;28;20129;-78
2021/08/02 07:47:17;;;;;;;6.28;3.13;;;18.70;96.40;;;;;;4991771;28;20124;-77
2021/08/02 07:49:44;;;;;;;5.32;1.85;;;18.80;96.10;;;;;;4996024;28;20124;-78
2021/08/02 07:52:10;;;;;;;8.60;2.80;;;18.90;95.80;;;;;;5007653;28;20038;-79
2021/08/02 07:54:36;;;;;;;3.78;2.47;;;18.90;95.90;;;;;;4992528;28;20044;-79
2021/08/02 07:57:01;;;;;;;9.50;2.72;;;19.00;95.90;;;;;;4990423;28;20108;-79
2021/08/02 07:59:28;;;;;;;4.38;2.30;;;19.00;95.80;;;;;;5006595;28;20108;-78
2021/08/02 08:01:53;;;;;;;10.88;2.28;;;19.00;95.70;;;;;;5006959;28;20033;-79
2021/08/02 08:04:19;;;;;;;6.50;2.03;;;18.90;95.10;;;;;;4987172;28;20036;-78
2021/08/02 08:06:46;;;;;;;6.35;2.03;;;19.00;95.60;;;;;;4994248;28;20473;-78
2021/08/02 08:09:12;;;;;;;7.40;1.88;;;18.80;95.40;;;;;;4995209;28;20197;-78
2021/08/02 08:11:38;;;;;;;4.88;1.23;;;18.90;95.80;;;;;;4996725;28;20022;-78
2021/08/02 08:14:05;;;;;;;6.20;1.70;;;19.00;95.40;;;;;;4991695;28;20045;-80
2021/08/02 08:16:31;;;;;;;7.10;1.80;;;19.10;95.50;;;;;;4993288;28;20037;-79
2021/08/02 08:18:56;;;;;;;6.53;1.95;;;19.30;95.70;;;;;;4994005;28;20080;-78
2021/08/02 08:21:22;;;;;;;4.38;1.63;;;19.40;95.60;;;;;;5008279;28;20105;-78
2021/08/02 08:23:48;;;;;;;5.35;1.95;;;19.60;95.80;;;;;;5008319;28;20032;-79
2021/08/02 08:26:13;;;;;;;6.22;1.75;;;19.80;95.70;;;;;;4992990;28;20030;-79
2021/08/02 08:28:40;;;;;;;5.20;1.50;;;19.90;95.70;;;;;;4994184;28;20396;-78
2021/08/02 08:31:05;;;;;;;3.25;1.65;;;20.00;95.40;;;;;;4993058;28;20025;-79
2021/08/02 08:33:31;;;;;;;3.72;1.67;;;20.30;95.60;;;;;;5032158;28;20040;-78
2021/08/02 08:35:56;;;;;;;7.82;2.13;;;20.50;95.60;;;;;;4994638;28;20104;-78
2021/08/02 08:38:22;;;;;;;7.38;2.00;;;20.70;95.80;;;;;;4994366;28;20110;-79
2021/08/02 08:40:48;;;;;;;3.97;2.28;;;20.80;95.40;;;;;;5011654;28;20389;-78
2021/08/02 08:43:16;;;;;;;10.93;4.00;;;20.90;95.40;;;;;;4995007;28;20670;-78
2021/08/02 08:45:41;;;;;;;12.52;3.97;;;21.10;95.30;;;;;;4993080;28;20037;-80
2021/08/02 08:48:07;;;;;;;24.30;7.05;;;21.20;95.10;;;;;;4994558;28;20501;-78
2021/08/02 08:50:32;;;;;;;9.43;4.28;;;21.30;95.20;;;;;;5010455;28;20030;-79
2021/08/02 08:52:58;;;;;;;15.50;4.97;;;21.40;94.60;;;;;;4996161;28;20036;-79
2021/08/02 08:55:25;;;;;;;8.15;4.85;;;21.40;94.40;;;;;;4995717;28;20026;-79
2021/08/02 08:57:50;;;;;;;9.52;5.80;;;21.50;94.10;;;;;;4995688;28;20443;-78
2021/08/02 09:00:23;;;;;;;7.90;4.38;;;21.60;94.00;;;;;;4995930;28;20028;-79
2021/08/02 09:02:49;;;;;;;8.38;6.57;;;21.70;93.70;;;;;;5000619;28;20079;-79
2021/08/02 09:05:15;;;;;;;9.40;7.00;;;21.80;93.70;;;;;;4996762;28;20117;-79
2021/08/02 09:07:41;;;;;;;12.38;7.60;;;22.00;93.80;;;;;;4995109;28;20112;-80
2021/08/02 09:10:10;;;;;;;8.95;6.45;;;22.10;93.10;;;;;;5000660;28;20036;-79
2021/08/02 09:12:35;;;;;;;10.07;8.05;;;22.20;93.10;;;;;;4977016;28;20482;-80
2021/08/02 09:15:06;;;;;;;8.15;6.55;;;22.40;93.00;;;;;;4994706;28;20415;-79
2021/08/02 09:17:35;;;;;;;7.05;5.22;;;22.60;92.50;;;;;;4994389;28;20032;-79
2021/08/02 09:20:23;;;;;;;7.53;6.05;;;22.60;92.10;;;;;;5005830;28;20033;-78
2021/08/02 09:22:49;;;;;;;11.30;7.85;;;22.60;91.80;;;;;;5010219;28;20048;-79
2021/08/02 09:25:20;;;;;;;9.73;6.65;;;22.90;92.60;;;;;;4997168;28;20037;-79
2021/08/02 09:27:45;;;;;;;10.45;5.68;;;23.10;92.00;;;;;;4999665;28;20026;-80
2021/08/02 09:30:24;;;;;;;9.63;5.28;;;23.20;92.20;;;;;;4996321;28;20045;-79
2021/08/02 09:32:53;;;;;;;10.25;4.60;;;23.30;91.30;;;;;;4994243;28;20030;-79
2021/08/02 09:35:30;;;;;;;5.68;4.85;;;23.50;91.10;;;;;;5010157;28;20036;-78
2021/08/02 09:37:57;;;;;;;5.40;4.63;;;23.60;90.80;;;;;;4992047;28;20818;-79
2021/08/02 09:40:23;;;;;;;6.70;3.95;;;23.80;91.50;;;;;;4996246;28;20034;-79
2021/08/02 09:42:53;;;;;;;5.30;4.30;;;23.50;89.20;;;;;;5025320;28;20043;-79
2021/08/02 09:45:19;;;;;;;12.85;4.97;;;23.80;90.90;;;;;;4994259;28;20034;-78
2021/08/02 09:47:48;;;;;;;6.80;3.83;;;24.10;90.60;;;;;;4995914;28;20064;-78
2021/08/02 09:50:27;;;;;;;7.53;4.32;;;24.30;90.40;;;;;;5001171;28;20137;-78
2021/08/02 09:52:53;;;;;;;7.55;3.03;;;24.10;90.90;;;;;;4976207;28;20038;-79
2021/08/02 09:55:20;;;;;;;4.45;2.85;;;24.80;88.50;;;;;;4991786;28;20052;-78
2021/08/02 09:57:46;;;;;;;4.90;3.13;;;24.80;87.60;;;;;;4991838;28;20034;-80
2021/08/02 10:00:12;;;;;;;5.80;3.35;;;25.00;87.30;;;;;;4992222;28;20037;-79
2021/08/02 10:02:38;;;;;;;3.13;2.47;;;25.20;87.20;;;;;;4989680;28;20116;-80
2021/08/02 10:05:04;;;;;;;7.22;2.58;;;25.30;87.10;;;;;;4993771;28;20443;-79
2021/08/02 10:07:30;;;;;;;5.88;2.38;;;25.50;86.70;;;;;;4997364;28;20451;-80
2021/08/02 10:09:55;;;;;;;2.85;2.08;;;25.80;83.70;;;;;;4998735;28;20057;-82
2021/08/02 10:12:21;;;;;;;4.68;1.80;;;25.80;83.80;;;;;;4994067;28;20525;-80
2021/08/02 10:14:47;;;;;;;2.70;1.42;;;25.80;83.00;;;;;;4998844;28;20045;-81
2021/08/02 10:17:12;;;;;;;3.38;1.73;;;25.90;82.70;;;;;;4998200;28;20641;-81
2021/08/02 10:19:43;;;;;;;2.35;1.80;;;25.80;81.40;;;;;;4993495;28;20021;-82
2021/08/02 10:22:10;;;;;;;3.40;2.17;;;26.00;80.40;;;;;;4988678;28;20486;-82
2021/08/02 10:24:49;;;;;;;4.47;2.20;;;26.10;79.70;;;;;;4990834;28;20040;-82
2021/08/02 10:27:24;;;;;;;3.83;2.20;;;26.20;80.10;;;;;;4990652;28;20045;-81
2021/08/02 10:29:50;;;;;;;3.80;2.10;;;26.10;81.80;;;;;;4988254;28;20037;-82
2021/08/02 10:32:22;;;;;;;4.10;2.03;;;26.40;81.30;;;;;;4994244;28;20125;-82
2021/08/02 10:34:55;;;;;;;4.35;1.83;;;26.50;82.00;;;;;;4993139;28;20037;-82
2021/08/02 10:37:39;;;;;;;4.43;1.80;;;26.70;79.60;;;;;;4988387;28;20044;-82
2021/08/02 10:40:07;;;;;;;4.32;1.38;;;26.90;78.80;;;;;;4993139;28;20064;-82
2021/08/02 10:42:43;;;;;;;5.05;1.33;;;27.10;78.40;;;;;;5006802;28;20034;-81
2021/08/02 10:45:09;;;;;;;4.25;2.10;;;26.90;77.50;;;;;;4996533;28;20362;-80
2021/08/02 10:47:39;;;;;;;3.67;1.40;;;27.10;78.30;;;;;;4993522;28;20057;-81
2021/08/02 10:50:06;;;;;;;2.65;1.42;;;26.70;75.70;;;;;;4995321;28;20033;-81
2021/08/02 10:52:31;;;;;;;4.82;1.40;;;27.50;77.40;;;;;;4990442;28;20029;-80
2021/08/02 10:54:57;;;;;;;2.83;1.13;;;27.50;75.40;;;;;;4996568;28;20508;-81
2021/08/02 10:57:23;;;;;;;4.13;1.40;;;27.70;76.50;;;;;;4996077;28;20072;-80
2021/08/02 10:59:48;;;;;;;2.97;1.25;;;27.70;75.40;;;;;;4996521;28;20037;-79
2021/08/02 11:02:14;;;;;;;2.30;1.45;;;28.30;79.50;;;;;;4990693;28;20041;-79
2021/08/02 11:04:40;;;;;;;5.28;1.65;;;28.30;73.60;;;;;;5007083;28;20030;-78
2021/08/02 11:07:05;;;;;;;2.70;1.25;;;28.60;77.10;;;;;;4994460;28;20596;-79
2021/08/02 11:09:35;;;;;;;3.47;1.60;;;28.90;75.00;;;;;;4991712;28;20034;-78
2021/08/02 11:12:13;;;;;;;3.80;1.45;;;28.70;69.40;;;;;;4314920;28;10000102;-79
2021/08/02 11:14:48;;;;;;;5.57;1.58;;;29.00;72.60;;;;;;4989650;28;20489;-78
2021/08/02 11:17:16;;;;;;;3.30;1.70;;;28.80;70.10;;;;;;4990439;28;20041;-78
2021/08/02 11:19:41;;;;;;;3.92;1.67;;;28.80;69.10;;;;;;5002733;28;20036;-77
2021/08/02 11:22:09;;;;;;;3.50;1.63;;;28.90;73.00;;;;;;4989209;28;20025;-75
2021/08/02 11:24:36;;;;;;;2.78;1.42;;;28.90;70.80;;;;;;4988294;28;20030;-78
2021/08/02 11:27:04;;;;;;;3.00;1.67;;;28.50;68.50;;;;;;5003702;28;20456;-76
2021/08/02 11:29:33;;;;;;;5.63;2.42;;;28.90;71.60;;;;;;4987389;28;20029;-75
2021/08/02 11:32:00;;;;;;;2.20;1.40;;;28.90;67.00;;;;;;4987951;28;20037;-76
2021/08/02 11:34:27;;;;;;;1.98;1.17;;;29.40;67.90;;;;;;4988747;28;20037;-75
2021/08/02 11:36:56;;;;;;;4.30;1.38;;;29.70;67.10;;;;;;4641324;28;10000018;-77
2021/08/02 11:39:22;;;;;;;2.38;1.20;;;29.90;69.90;;;;;;5003261;28;20030;-76
2021/08/02 11:41:57;;;;;;;3.38;1.38;;;30.00;67.50;;;;;;4990536;28;25497;-76
2021/08/02 11:44:22;;;;;;;3.13;1.08;;;29.80;64.70;;;;;;4990020;28;20113;-76
2021/08/02 11:46:48;;;;;;;2.20;1.25;;;29.80;66.10;;;;;;4992316;28;20112;-77
2021/08/02 11:49:14;;;;;;;2.65;1.92;;;30.00;67.20;;;;;;4990884;28;20556;-77
2021/08/02 11:51:39;;;;;;;2.92;1.20;;;30.10;67.80;;;;;;5005416;28;20171;-76
2021/08/02 11:54:05;;;;;;;4.03;1.55;;;30.20;63.80;;;;;;4989474;28;20060;-77
2021/08/02 11:56:31;;;;;;;3.83;1.60;;;30.10;62.80;;;;;;4997537;28;20053;-77
2021/08/02 11:58:56;;;;;;;2.30;1.25;;;29.40;59.90;;;;;;4991588;28;20489;-76
2021/08/02 12:01:22;;;;;;;4.63;2.50;;;28.80;61.70;;;;;;4990465;28;20045;-77
2021/08/02 12:03:47;;;;;;;3.65;1.70;;;29.80;65.70;;;;;;4988349;28;20512;-78
2021/08/02 12:06:13;;;;;;;5.82;2.20;;;30.50;60.70;;;;;;4990210;28;20075;-78
2021/08/02 12:08:48;;;;;;;3.28;2.00;;;30.80;62.80;;;;;;5003488;28;20057;-77
2021/08/02 12:11:14;;;;;;;3.30;2.25;;;30.50;61.30;;;;;;5006498;28;20033;-78
2021/08/02 12:13:41;;;;;;;4.65;2.30;;;30.30;63.20;;;;;;4993717;28;20032;-76
2021/08/02 12:16:07;;;;;;;3.35;2.40;;;30.10;59.60;;;;;;5007156;28;20386;-77
2021/08/02 12:18:33;;;;;;;3.08;2.70;;;29.50;59.80;;;;;;5009215;28;20032;-77
2021/08/02 12:21:21;;;;;;;3.65;2.47;;;29.40;62.30;;;;;;5007152;28;20393;-77
2021/08/02 12:23:47;;;;;;;4.32;2.78;;;30.20;62.70;;;;;;4991796;28;20057;-78
2021/08/02 12:26:17;;;;;;;3.53;2.40;;;30.70;62.00;;;;;;4991306;28;20115;-77
2021/08/02 12:28:43;;;;;;;7.40;3.38;;;30.40;59.90;;;;;;4998028;28;20083;-77
2021/08/02 12:31:18;;;;;;;9.35;4.70;;;30.90;59.60;;;;;;4984284;28;20120;-77
2021/08/02 12:33:45;;;;;;;6.72;2.95;;;31.20;58.90;;;;;;4989512;28;20103;-76
2021/08/02 12:36:10;;;;;;;5.65;2.95;;;30.70;58.90;;;;;;4992842;28;20067;-77
2021/08/02 12:38:44;;;;;;;7.00;3.47;;;31.10;58.40;;;;;;5004366;28;20109;-77
2021/08/02 12:41:09;;;;;;;6.40;3.92;;;31.10;57.80;;;;;;4996365;28;20500;-77
2021/08/02 12:43:35;;;;;;;6.80;3.25;;;31.30;57.00;;;;;;5007157;28;20040;-78
2021/08/02 12:46:01;;;;;;;6.70;3.83;;;31.40;55.20;;;;;;4988699;28;20401;-77